sensor_id;sensor_type;location;lat;lon;timestamp;pressure;altitude;pressure_sealevel;temperature;humidity
15487;BME280;7845;53.698;10.078;2022-07-10T00:01:21;101778.41;;;15.67;100.00
15487;BME280;7845;53.698;10.078;2022-07-10T00:03:46;101768.72;;;15.69;100.00
15487;BME280;7845;53.698;10.078;2022-07-10T00:06:15;101763.50;;;15.67;100.00
15487;BME280;7845;53.698;10.078;2022-07-10T00:08:40;101774.00;;;15.70;100.00
15487;BME280;7845;53.698;10.078;2022-07-10T00:11:08;101775.91;;;15.56;100.00
15487;BME280;7845;53.698;10.078;2022-07-10T00:13:34;101769.75;;;15.57;100.00
15487;BME280;7845;53.698;10.078;2022-07-10T00:15:59;101770.56;;;15.62;100.00
15487;BME280;7845;53.698;10.078;2022-07-10T00:18:28;101767.97;;;15.59;100.00
15487;BME280;7845;53.698;10.078;2022-07-10T00:20:53;101768.84;;;15.60;100.00
15487;BME280;7845;53.698;10.078;2022-07-10T00:23:19;101785.56;;;15.59;100.00
15487;BME280;7845;53.698;10.078;2022-07-10T00:25:44;101776.00;;;15.45;100.00
15487;BME280;7845;53.698;10.078;2022-07-10T00:28:09;101784.78;;;15.44;100.00
15487;BME280;7845;53.698;10.078;2022-07-10T00:30:36;101786.75;;;15.29;100.00
15487;BME280;7845;53.698;10.078;2022-07-10T00:33:02;101786.72;;;15.30;100.00
15487;BME280;7845;53.698;10.078;2022-07-10T00:35:27;101782.31;;;15.29;100.00
15487;BME280;7845;53.698;10.078;2022-07-10T00:37:52;101780.31;;;15.54;100.00
15487;BME280;7845;53.698;10.078;2022-07-10T00:40:18;101781.28;;;15.48;100.00
15487;BME280;7845;53.698;10.078;2022-07-10T00:42:43;101784.75;;;15.52;100.00
15487;BME280;7845;53.698;10.078;2022-07-10T00:45:09;101782.06;;;15.55;100.00
15487;BME280;7845;53.698;10.078;2022-07-10T00:47:34;101774.31;;;15.38;100.00
15487;BME280;7845;53.698;10.078;2022-07-10T00:49:59;101774.28;;;15.43;100.00
15487;BME280;7845;53.698;10.078;2022-07-10T00:52:25;101770.78;;;15.42;100.00
15487;BME280;7845;53.698;10.078;2022-07-10T00:54:51;101769.09;;;15.37;100.00
15487;BME280;7845;53.698;10.078;2022-07-10T00:57:17;101762.13;;;15.34;100.00
15487;BME280;7845;53.698;10.078;2022-07-10T00:59:44;101763.78;;;15.41;100.00
15487;BME280;7845;53.698;10.078;2022-07-10T01:02:10;101770.88;;;15.35;100.00
15487;BME280;7845;53.698;10.078;2022-07-10T01:04:35;101763.94;;;15.26;100.00
15487;BME280;7845;53.698;10.078;2022-07-10T01:07:01;101764.81;;;15.27;100.00
15487;BME280;7845;53.698;10.078;2022-07-10T01:09:27;101769.13;;;15.34;100.00
15487;BME280;7845;53.698;10.078;2022-07-10T01:11:55;101772.69;;;15.31;100.00
15487;BME280;7845;53.698;10.078;2022-07-10T01:14:21;101770.13;;;15.25;100.00
15487;BME280;7845;53.698;10.078;2022-07-10T01:16:46;101758.81;;;15.16;100.00
15487;BME280;7845;53.698;10.078;2022-07-10T01:19:12;101772.84;;;15.15;100.00
15487;BME280;7845;53.698;10.078;2022-07-10T01:21:37;101764.88;;;15.21;100.00
15487;BME280;7845;53.698;10.078;2022-07-10T01:24:07;101764.91;;;15.18;100.00
15487;BME280;7845;53.698;10.078;2022-07-10T01:26:33;101759.59;;;15.24;100.00
15487;BME280;7845;53.698;10.078;2022-07-10T01:29:02;101742.97;;;15.22;100.00
15487;BME280;7845;53.698;10.078;2022-07-10T01:31:28;101738.53;;;15.24;100.00
15487;BME280;7845;53.698;10.078;2022-07-10T01:33:54;101735.00;;;15.26;100.00
15487;BME280;7845;53.698;10.078;2022-07-10T01:36:21;101741.94;;;15.33;100.00
15487;BME280;7845;53.698;10.078;2022-07-10T01:38:46;101741.09;;;15.31;100.00
15487;BME280;7845;53.698;10.078;2022-07-10T01:41:12;101738.47;;;15.30;100.00
15487;BME280;7845;53.698;10.078;2022-07-10T01:43:37;101742.06;;;15.26;100.00
15487;BME280;7845;53.698;10.078;2022-07-10T01:46:03;101745.47;;;15.32;100.00
15487;BME280;7845;53.698;10.078;2022-07-10T01:48:29;101734.16;;;15.26;100.00
15487;BME280;7845;53.698;10.078;2022-07-10T01:50:55;101738.53;;;15.25;100.00
15487;BME280;7845;53.698;10.078;2022-07-10T01:53:20;101736.00;;;15.18;100.00
15487;BME280;7845;53.698;10.078;2022-07-10T01:55:45;101729.88;;;15.14;100.00
15487;BME280;7845;53.698;10.078;2022-07-10T01:58:10;101722.84;;;15.18;100.00
15487;BME280;7845;53.698;10.078;2022-07-10T02:00:36;101725.44;;;15.22;100.00
15487;BME280;7845;53.698;10.078;2022-07-10T02:03:01;101722.97;;;15.06;100.00
15487;BME280;7845;53.698;10.078;2022-07-10T02:05:45;101727.25;;;15.16;100.00
15487;BME280;7845;53.698;10.078;2022-07-10T02:08:11;101724.78;;;15.01;100.00
15487;BME280;7845;53.698;10.078;2022-07-10T02:10:36;101722.03;;;15.13;100.00
15487;BME280;7845;53.698;10.078;2022-07-10T02:13:01;101722.09;;;15.08;100.00
15487;BME280;7845;53.698;10.078;2022-07-10T02:15:27;101721.19;;;15.09;100.00
15487;BME280;7845;53.698;10.078;2022-07-10T02:17:52;101714.16;;;15.10;100.00
15487;BME280;7845;53.698;10.078;2022-07-10T02:20:17;101727.31;;;15.11;100.00
15487;BME280;7845;53.698;10.078;2022-07-10T02:22:43;101716.84;;;15.08;100.00
15487;BME280;7845;53.698;10.078;2022-07-10T02:25:08;101722.06;;;15.10;100.00
15487;BME280;7845;53.698;10.078;2022-07-10T02:27:33;101710.63;;;15.12;100.00
15487;BME280;7845;53.698;10.078;2022-07-10T02:29:59;101713.38;;;15.05;100.00
15487;BME280;7845;53.698;10.078;2022-07-10T02:32:24;101715.16;;;15.00;100.00
15487;BME280;7845;53.698;10.078;2022-07-10T02:34:50;101722.06;;;15.10;100.00
15487;BME280;7845;53.698;10.078;2022-07-10T02:37:16;101713.47;;;14.95;100.00
15487;BME280;7845;53.698;10.078;2022-07-10T02:39:41;101727.50;;;14.91;100.00
15487;BME280;7845;53.698;10.078;2022-07-10T02:42:06;101722.97;;;15.07;100.00
15487;BME280;7845;53.698;10.078;2022-07-10T02:44:32;101716.81;;;15.11;100.00
15487;BME280;7845;53.698;10.078;2022-07-10T02:46:57;101716.72;;;15.14;100.00
15487;BME280;7845;53.698;10.078;2022-07-10T02:49:22;101722.88;;;15.16;100.00
15487;BME280;7845;53.698;10.078;2022-07-10T02:51:48;101724.63;;;15.16;100.00
15487;BME280;7845;53.698;10.078;2022-07-10T02:54:13;101720.34;;;15.06;100.00
15487;BME280;7845;53.698;10.078;2022-07-10T02:56:39;101722.00;;;15.14;100.00
15487;BME280;7845;53.698;10.078;2022-07-10T02:59:04;101719.44;;;15.11;100.00
15487;BME280;7845;53.698;10.078;2022-07-10T03:01:31;101724.69;;;15.11;100.00
15487;BME280;7845;53.698;10.078;2022-07-10T03:03:57;101717.69;;;15.10;100.00
15487;BME280;7845;53.698;10.078;2022-07-10T03:06:23;101716.84;;;15.07;100.00
15487;BME280;7845;53.698;10.078;2022-07-10T03:08:48;101715.09;;;15.07;100.00
15487;BME280;7845;53.698;10.078;2022-07-10T03:11:14;101718.53;;;15.12;100.00
15487;BME280;7845;53.698;10.078;2022-07-10T03:13:39;101721.97;;;15.17;100.00
15487;BME280;7845;53.698;10.078;2022-07-10T03:16:05;101725.53;;;15.13;100.00
15487;BME280;7845;53.698;10.078;2022-07-10T03:18:30;101719.31;;;15.17;100.00
15487;BME280;7845;53.698;10.078;2022-07-10T03:20:55;101720.22;;;15.18;100.00
15487;BME280;7845;53.698;10.078;2022-07-10T03:23:21;101718.38;;;15.26;100.00
15487;BME280;7845;53.698;10.078;2022-07-10T03:25:46;101714.91;;;15.22;100.00
15487;BME280;7845;53.698;10.078;2022-07-10T03:28:11;101718.44;;;15.20;100.00
15487;BME280;7845;53.698;10.078;2022-07-10T03:30:37;101710.69;;;15.08;100.00
15487;BME280;7845;53.698;10.078;2022-07-10T03:33:02;101714.97;;;15.16;100.00
15487;BME280;7845;53.698;10.078;2022-07-10T03:35:29;101721.09;;;15.20;100.00
15487;BME280;7845;53.698;10.078;2022-07-10T03:37:56;101717.66;;;15.13;100.00
15487;BME280;7845;53.698;10.078;2022-07-10T03:40:21;101715.97;;;15.08;100.00
15487;BME280;7845;53.698;10.078;2022-07-10T03:42:47;101713.19;;;15.18;100.00
15487;BME280;7845;53.698;10.078;2022-07-10T03:45:12;101707.06;;;15.19;100.00
15487;BME280;7845;53.698;10.078;2022-07-10T03:47:37;101708.75;;;15.23;100.00
15487;BME280;7845;53.698;10.078;2022-07-10T03:50:03;101707.84;;;15.24;100.00
15487;BME280;7845;53.698;10.078;2022-07-10T03:52:29;101715.81;;;15.18;100.00
15487;BME280;7845;53.698;10.078;2022-07-10T03:54:54;101718.53;;;15.14;100.00
15487;BME280;7845;53.698;10.078;2022-07-10T03:57:19;101717.00;;;14.93;100.00
15487;BME280;7845;53.698;10.078;2022-07-10T04:00:04;101707.28;;;14.98;100.00
15487;BME280;7845;53.698;10.078;2022-07-10T04:02:30;101710.69;;;15.08;100.00
15487;BME280;7845;53.698;10.078;2022-07-10T04:04:55;101707.16;;;15.09;100.00
15487;BME280;7845;53.698;10.078;2022-07-10T04:07:21;101704.41;;;15.19;100.00
15487;BME280;7845;53.698;10.078;2022-07-10T04:09:46;101703.44;;;15.26;100.00
15487;BME280;7845;53.698;10.078;2022-07-10T04:12:11;101709.53;;;15.30;100.00
15487;BME280;7845;53.698;10.078;2022-07-10T04:14:36;101693.84;;;15.25;100.00
15487;BME280;7845;53.698;10.078;2022-07-10T04:17:02;101693.69;;;15.36;100.00
15487;BME280;7845;53.698;10.078;2022-07-10T04:19:27;101699.66;;;15.52;100.00
15487;BME280;7845;53.698;10.078;2022-07-10T04:21:53;101703.72;;;15.75;100.00
15487;BME280;7845;53.698;10.078;2022-07-10T04:24:18;101690.69;;;15.68;100.00
15487;BME280;7845;53.698;10.078;2022-07-10T04:26:44;101686.13;;;15.79;100.00
15487;BME280;7845;53.698;10.078;2022-07-10T04:29:09;101683.44;;;15.80;100.00
15487;BME280;7845;53.698;10.078;2022-07-10T04:31:35;101694.19;;;15.65;100.00
15487;BME280;7845;53.698;10.078;2022-07-10T04:34:00;101684.41;;;15.75;100.00
15487;BME280;7845;53.698;10.078;2022-07-10T04:36:25;101687.22;;;15.64;100.00
15487;BME280;7845;53.698;10.078;2022-07-10T04:38:50;101685.53;;;16.17;100.00
15487;BME280;7845;53.698;10.078;2022-07-10T04:41:16;101682.75;;;16.26;100.00
15487;BME280;7845;53.698;10.078;2022-07-10T04:43:41;101682.06;;;16.15;100.00
15487;BME280;7845;53.698;10.078;2022-07-10T04:46:07;101688.94;;;16.23;100.00
15487;BME280;7845;53.698;10.078;2022-07-10T04:48:32;101685.41;;;15.68;100.00
15487;BME280;7845;53.698;10.078;2022-07-10T04:50:57;101696.56;;;15.83;100.00
15487;BME280;7845;53.698;10.078;2022-07-10T04:53:23;101688.75;;;15.79;100.00
15487;BME280;7845;53.698;10.078;2022-07-10T04:55:48;101695.69;;;15.86;100.00
15487;BME280;7845;53.698;10.078;2022-07-10T04:58:14;101693.44;;;15.57;100.00
15487;BME280;7845;53.698;10.078;2022-07-10T05:00:40;101686.25;;;15.70;100.00
15487;BME280;7845;53.698;10.078;2022-07-10T05:03:05;101695.66;;;15.87;100.00
15487;BME280;7845;53.698;10.078;2022-07-10T05:05:30;101707.19;;;15.79;100.00
15487;BME280;7845;53.698;10.078;2022-07-10T05:07:55;101699.41;;;15.70;100.00
15487;BME280;7845;53.698;10.078;2022-07-10T05:10:21;101711.41;;;15.90;100.00
15487;BME280;7845;53.698;10.078;2022-07-10T05:12:46;101704.19;;;16.01;100.00
15487;BME280;7845;53.698;10.078;2022-07-10T05:15:11;101708.59;;;16.02;100.00
15487;BME280;7845;53.698;10.078;2022-07-10T05:17:37;101707.78;;;15.97;100.00
15487;BME280;7845;53.698;10.078;2022-07-10T05:20:02;101710.47;;;15.93;100.00
15487;BME280;7845;53.698;10.078;2022-07-10T05:22:28;101708.06;;;15.78;100.00
15487;BME280;7845;53.698;10.078;2022-07-10T05:24:55;101716.53;;;15.98;100.00
15487;BME280;7845;53.698;10.078;2022-07-10T05:27:20;101715.81;;;15.88;100.00
15487;BME280;7845;53.698;10.078;2022-07-10T05:29:46;101716.63;;;15.93;100.00
15487;BME280;7845;53.698;10.078;2022-07-10T05:32:12;101708.81;;;15.87;100.00
15487;BME280;7845;53.698;10.078;2022-07-10T05:34:37;101707.06;;;15.88;100.00
15487;BME280;7845;53.698;10.078;2022-07-10T05:37:03;101706.59;;;16.18;100.00
15487;BME280;7845;53.698;10.078;2022-07-10T05:39:28;101700.41;;;16.19;100.00
15487;BME280;7845;53.698;10.078;2022-07-10T05:41:53;101711.81;;;16.21;100.00
15487;BME280;7845;53.698;10.078;2022-07-10T05:44:21;101701.97;;;16.31;100.00
15487;BME280;7845;53.698;10.078;2022-07-10T05:46:46;101691.66;;;16.19;100.00
15487;BME280;7845;53.698;10.078;2022-07-10T05:49:12;101700.22;;;16.33;100.00
15487;BME280;7845;53.698;10.078;2022-07-10T05:51:37;101694.06;;;16.32;100.00
15487;BME280;7845;53.698;10.078;2022-07-10T05:54:03;101690.75;;;16.21;100.00
15487;BME280;7845;53.698;10.078;2022-07-10T05:56:29;101699.31;;;16.32;100.00
15487;BME280;7845;53.698;10.078;2022-07-10T05:58:54;101708.31;;;16.21;100.00
15487;BME280;7845;53.698;10.078;2022-07-10T06:01:21;101711.88;;;16.17;100.00
15487;BME280;7845;53.698;10.078;2022-07-10T06:03:46;101710.19;;;16.13;100.00
15487;BME280;7845;53.698;10.078;2022-07-10T06:06:12;101719.66;;;16.24;100.00
15487;BME280;7845;53.698;10.078;2022-07-10T06:08:40;101710.94;;;16.19;100.00
15487;BME280;7845;53.698;10.078;2022-07-10T06:11:06;101721.53;;;16.18;100.00
15487;BME280;7845;53.698;10.078;2022-07-10T06:13:31;101718.09;;;16.13;100.00
15487;BME280;7845;53.698;10.078;2022-07-10T06:15:56;101720.81;;;16.07;100.00
15487;BME280;7845;53.698;10.078;2022-07-10T06:18:22;101706.31;;;16.36;100.00
15487;BME280;7845;53.698;10.078;2022-07-10T06:20:47;101710.19;;;16.11;100.00
15487;BME280;7845;53.698;10.078;2022-07-10T06:23:12;101712.00;;;16.08;100.00
15487;BME280;7845;53.698;10.078;2022-07-10T06:25:37;101714.00;;;16.47;100.00
15487;BME280;7845;53.698;10.078;2022-07-10T06:28:03;101705.16;;;16.51;100.00
15487;BME280;7845;53.698;10.078;2022-07-10T06:30:28;101718.63;;;16.86;100.00
15487;BME280;7845;53.698;10.078;2022-07-10T06:32:53;101714.25;;;16.85;100.00
15487;BME280;7845;53.698;10.078;2022-07-10T06:35:19;101715.97;;;16.86;100.00
15487;BME280;7845;53.698;10.078;2022-07-10T06:37:44;101728.72;;;16.62;100.00
15487;BME280;7845;53.698;10.078;2022-07-10T06:40:12;101716.47;;;16.59;100.00
15487;BME280;7845;53.698;10.078;2022-07-10T06:42:38;101732.38;;;16.54;100.00
15487;BME280;7845;53.698;10.078;2022-07-10T06:45:04;101724.91;;;16.26;100.00
15487;BME280;7845;53.698;10.078;2022-07-10T06:47:29;101724.56;;;16.47;100.00
15487;BME280;7845;53.698;10.078;2022-07-10T06:50:13;101720.22;;;16.43;100.00
15487;BME280;7845;53.698;10.078;2022-07-10T06:52:38;101732.50;;;16.44;100.00
15487;BME280;7845;53.698;10.078;2022-07-10T06:55:04;101722.69;;;16.55;100.00
15487;BME280;7845;53.698;10.078;2022-07-10T06:57:29;101716.56;;;16.54;100.00
15487;BME280;7845;53.698;10.078;2022-07-10T06:59:55;101719.09;;;16.59;100.00
15487;BME280;7845;53.698;10.078;2022-07-10T07:02:20;101730.25;;;16.75;100.00
15487;BME280;7845;53.698;10.078;2022-07-10T07:04:46;101707.47;;;16.72;100.00
15487;BME280;7845;53.698;10.078;2022-07-10T07:07:12;101704.72;;;16.78;100.00
15487;BME280;7845;53.698;10.078;2022-07-10T07:09:38;101698.63;;;16.73;100.00
15487;BME280;7845;53.698;10.078;2022-07-10T07:12:05;101694.22;;;16.75;100.00
15487;BME280;7845;53.698;10.078;2022-07-10T07:14:30;101688.56;;;16.95;100.00
15487;BME280;7845;53.698;10.078;2022-07-10T07:16:56;101687.22;;;17.19;100.00
15487;BME280;7845;53.698;10.078;2022-07-10T07:19:29;101687.28;;;17.15;100.00
15487;BME280;7845;53.698;10.078;2022-07-10T07:22:00;101687.91;;;17.28;100.00
15487;BME280;7845;53.698;10.078;2022-07-10T07:24:44;101679.84;;;17.34;100.00
15487;BME280;7845;53.698;10.078;2022-07-10T07:27:11;101681.31;;;17.47;100.00
15487;BME280;7845;53.698;10.078;2022-07-10T07:29:37;101692.84;;;17.43;100.00
15487;BME280;7845;53.698;10.078;2022-07-10T07:32:03;101696.50;;;17.36;100.00
15487;BME280;7845;53.698;10.078;2022-07-10T07:34:28;101689.53;;;17.34;100.00
15487;BME280;7845;53.698;10.078;2022-07-10T07:36:54;101688.91;;;17.21;100.00
15487;BME280;7845;53.698;10.078;2022-07-10T07:39:19;101685.25;;;17.28;100.00
15487;BME280;7845;53.698;10.078;2022-07-10T07:41:44;101693.06;;;17.33;100.00
15487;BME280;7845;53.698;10.078;2022-07-10T07:44:10;101684.00;;;17.03;100.00
15487;BME280;7845;53.698;10.078;2022-07-10T07:46:37;101680.31;;;17.11;100.00
15487;BME280;7845;53.698;10.078;2022-07-10T07:49:02;101684.69;;;17.12;100.00
15487;BME280;7845;53.698;10.078;2022-07-10T07:51:27;101687.13;;;17.23;100.00
15487;BME280;7845;53.698;10.078;2022-07-10T07:53:53;101688.97;;;17.20;100.00
15487;BME280;7845;53.698;10.078;2022-07-10T07:56:18;101703.22;;;17.09;100.00
15487;BME280;7845;53.698;10.078;2022-07-10T07:58:43;101688.72;;;17.32;100.00
15487;BME280;7845;53.698;10.078;2022-07-10T08:01:09;101679.91;;;17.31;100.00
15487;BME280;7845;53.698;10.078;2022-07-10T08:03:34;101682.56;;;17.30;100.00
15487;BME280;7845;53.698;10.078;2022-07-10T08:06:00;101670.66;;;17.52;100.00
15487;BME280;7845;53.698;10.078;2022-07-10T08:08:26;101682.88;;;17.59;100.00
15487;BME280;7845;53.698;10.078;2022-07-10T08:10:51;101681.28;;;17.49;100.00
15487;BME280;7845;53.698;10.078;2022-07-10T08:13:17;101679.72;;;17.40;100.00
15487;BME280;7845;53.698;10.078;2022-07-10T08:15:42;101689.41;;;17.38;100.00
15487;BME280;7845;53.698;10.078;2022-07-10T08:18:07;101682.56;;;17.30;100.00
15487;BME280;7845;53.698;10.078;2022-07-10T08:20:33;101661.13;;;17.45;100.00
15487;BME280;7845;53.698;10.078;2022-07-10T08:22:58;101665.47;;;17.49;100.00
15487;BME280;7845;53.698;10.078;2022-07-10T08:25:24;101645.28;;;17.45;100.00
15487;BME280;7845;53.698;10.078;2022-07-10T08:27:50;101670.16;;;17.35;100.00
15487;BME280;7845;53.698;10.078;2022-07-10T08:30:16;101646.09;;;17.48;100.00
15487;BME280;7845;53.698;10.078;2022-07-10T08:32:41;101653.13;;;17.49;100.00
15487;BME280;7845;53.698;10.078;2022-07-10T08:35:10;101648.56;;;17.59;100.00
15487;BME280;7845;53.698;10.078;2022-07-10T08:37:43;101650.03;;;17.71;100.00
15487;BME280;7845;53.698;10.078;2022-07-10T08:40:11;101655.69;;;17.52;100.00
15487;BME280;7845;53.698;10.078;2022-07-10T08:42:38;101655.41;;;17.67;100.00
15487;BME280;7845;53.698;10.078;2022-07-10T08:45:04;101656.81;;;17.82;100.00
15487;BME280;7845;53.698;10.078;2022-07-10T08:47:30;101646.19;;;17.84;99.71
15487;BME280;7845;53.698;10.078;2022-07-10T08:49:59;101644.28;;;17.90;100.00
15487;BME280;7845;53.698;10.078;2022-07-10T08:52:26;101649.84;;;17.80;100.00
15487;BME280;7845;53.698;10.078;2022-07-10T08:54:52;101646.13;;;17.87;99.82
15487;BME280;7845;53.698;10.078;2022-07-10T08:57:19;101645.91;;;17.96;100.00
15487;BME280;7845;53.698;10.078;2022-07-10T08:59:45;101648.41;;;17.65;100.00
15487;BME280;7845;53.698;10.078;2022-07-10T09:02:10;101655.25;;;17.74;100.00
15487;BME280;7845;53.698;10.078;2022-07-10T09:04:36;101658.03;;;17.67;96.24
15487;BME280;7845;53.698;10.078;2022-07-10T09:07:01;101650.06;;;17.69;95.41
15487;BME280;7845;53.698;10.078;2022-07-10T09:09:26;101651.81;;;17.68;99.19
15487;BME280;7845;53.698;10.078;2022-07-10T09:11:58;101653.16;;;17.86;100.00
15487;BME280;7845;53.698;10.078;2022-07-10T09:14:27;101646.25;;;17.81;97.64
15487;BME280;7845;53.698;10.078;2022-07-10T09:16:57;101650.13;;;17.67;99.10
15487;BME280;7845;53.698;10.078;2022-07-10T09:19:27;101656.97;;;17.75;100.00
15487;BME280;7845;53.698;10.078;2022-07-10T09:22:07;101641.78;;;17.84;100.00
15487;BME280;7845;53.698;10.078;2022-07-10T09:24:37;101647.88;;;17.86;100.00
15487;BME280;7845;53.698;10.078;2022-07-10T09:27:03;101643.56;;;18.19;100.00
15487;BME280;7845;53.698;10.078;2022-07-10T09:29:31;101644.03;;;18.35;100.00
15487;BME280;7845;53.698;10.078;2022-07-10T09:32:02;101638.03;;;18.28;100.00
15487;BME280;7845;53.698;10.078;2022-07-10T09:34:50;101640.34;;;18.42;100.00
15487;BME280;7845;53.698;10.078;2022-07-10T09:37:38;101646.94;;;18.59;100.00
15487;BME280;7845;53.698;10.078;2022-07-10T09:40:05;101658.22;;;18.32;100.00
15487;BME280;7845;53.698;10.078;2022-07-10T09:42:33;101654.91;;;18.24;100.00
15487;BME280;7845;53.698;10.078;2022-07-10T09:47:43;101640.94;;;18.54;97.96
15487;BME280;7845;53.698;10.078;2022-07-10T09:50:21;101660.69;;;18.40;97.71
15487;BME280;7845;53.698;10.078;2022-07-10T09:52:50;101672.53;;;18.59;100.00
15487;BME280;7845;53.698;10.078;2022-07-10T09:55:18;101656.81;;;18.53;99.52
15487;BME280;7845;53.698;10.078;2022-07-10T09:57:45;101671.78;;;18.54;100.00
15487;BME280;7845;53.698;10.078;2022-07-10T10:00:14;101677.44;;;18.39;99.48
15487;BME280;7845;53.698;10.078;2022-07-10T10:02:39;101665.41;;;18.25;97.51
15487;BME280;7845;53.698;10.078;2022-07-10T10:05:06;101666.28;;;18.61;98.90
15487;BME280;7845;53.698;10.078;2022-07-10T10:07:35;101659.94;;;18.68;91.74
15487;BME280;7845;53.698;10.078;2022-07-10T10:10:03;101653.09;;;18.92;92.53
15487;BME280;7845;53.698;10.078;2022-07-10T10:12:37;101654.84;;;18.93;86.96
15487;BME280;7845;53.698;10.078;2022-07-10T10:15:05;101660.97;;;19.24;88.63
15487;BME280;7845;53.698;10.078;2022-07-10T10:17:32;101651.16;;;19.28;89.40
15487;BME280;7845;53.698;10.078;2022-07-10T10:19:59;101656.56;;;19.25;89.54
15487;BME280;7845;53.698;10.078;2022-07-10T10:22:44;101669.34;;;19.11;92.59
15487;BME280;7845;53.698;10.078;2022-07-10T10:25:11;101671.50;;;18.64;91.07
15487;BME280;7845;53.698;10.078;2022-07-10T10:27:37;101670.50;;;19.01;91.08
15487;BME280;7845;53.698;10.078;2022-07-10T10:30:04;101653.56;;;19.06;87.43
15487;BME280;7845;53.698;10.078;2022-07-10T10:32:30;101635.31;;;19.26;87.50
15487;BME280;7845;53.698;10.078;2022-07-10T10:34:55;101656.66;;;19.22;87.52
15487;BME280;7845;53.698;10.078;2022-07-10T10:39:55;101648.94;;;19.14;88.79
15487;BME280;7845;53.698;10.078;2022-07-10T10:42:33;101646.31;;;19.44;84.67
15487;BME280;7845;53.698;10.078;2022-07-10T10:50:36;101650.22;;;19.60;82.82
15487;BME280;7845;53.698;10.078;2022-07-10T10:53:02;101647.91;;;19.49;81.88
15487;BME280;7845;53.698;10.078;2022-07-10T10:55:28;101653.56;;;19.66;85.09
15487;BME280;7845;53.698;10.078;2022-07-10T10:58:11;101645.56;;;19.68;83.00
15487;BME280;7845;53.698;10.078;2022-07-10T11:00:39;101645.00;;;19.58;82.26
15487;BME280;7845;53.698;10.078;2022-07-10T11:03:17;101646.59;;;19.62;83.11
15487;BME280;7845;53.698;10.078;2022-07-10T11:05:44;101659.66;;;19.96;82.75
15487;BME280;7845;53.698;10.078;2022-07-10T11:08:11;101643.13;;;20.16;78.12
15487;BME280;7845;53.698;10.078;2022-07-10T11:10:45;101641.28;;;20.18;78.50
15487;BME280;7845;53.698;10.078;2022-07-10T11:15:42;101647.78;;;20.08;78.00
15487;BME280;7845;53.698;10.078;2022-07-10T11:18:11;101649.47;;;20.10;80.08
15487;BME280;7845;53.698;10.078;2022-07-10T11:20:48;101646.25;;;20.28;76.65
15487;BME280;7845;53.698;10.078;2022-07-10T11:25:54;101657.25;;;19.61;77.88
15487;BME280;7845;53.698;10.078;2022-07-10T11:28:59;101673.31;;;19.84;79.81
15487;BME280;7845;53.698;10.078;2022-07-10T11:31:28;101660.28;;;20.04;82.66
15487;BME280;7845;53.698;10.078;2022-07-10T11:33:55;101651.31;;;20.08;80.28
15487;BME280;7845;53.698;10.078;2022-07-10T11:36:24;101640.38;;;20.19;78.44
15487;BME280;7845;53.698;10.078;2022-07-10T11:38:59;101649.56;;;19.81;77.89
15487;BME280;7845;53.698;10.078;2022-07-10T11:41:25;101651.13;;;20.14;78.40
15487;BME280;7845;53.698;10.078;2022-07-10T11:43:56;101654.56;;;20.16;78.54
15487;BME280;7845;53.698;10.078;2022-07-10T11:46:24;101653.25;;;20.03;78.38
15487;BME280;7845;53.698;10.078;2022-07-10T11:48:51;101648.56;;;20.11;75.81
15487;BME280;7845;53.698;10.078;2022-07-10T11:51:34;101644.13;;;20.12;75.10
15487;BME280;7845;53.698;10.078;2022-07-10T11:54:07;101651.69;;;20.24;77.26
15487;BME280;7845;53.698;10.078;2022-07-10T11:56:36;101655.81;;;20.06;78.26
15487;BME280;7845;53.698;10.078;2022-07-10T11:59:11;101655.31;;;20.21;81.03
15487;BME280;7845;53.698;10.078;2022-07-10T12:01:47;101653.34;;;20.00;79.04
15487;BME280;7845;53.698;10.078;2022-07-10T12:04:16;101674.75;;;19.94;81.20
15487;BME280;7845;53.698;10.078;2022-07-10T12:06:46;101671.00;;;19.73;79.47
15487;BME280;7845;53.698;10.078;2022-07-10T12:09:14;101657.38;;;20.12;76.48
15487;BME280;7845;53.698;10.078;2022-07-10T12:11:41;101668.38;;;20.00;79.16
15487;BME280;7845;53.698;10.078;2022-07-10T12:14:19;101676.81;;;19.84;80.96
15487;BME280;7845;53.698;10.078;2022-07-10T12:16:50;101667.38;;;20.04;81.89
15487;BME280;7845;53.698;10.078;2022-07-10T12:19:18;101661.81;;;20.11;81.69
15487;BME280;7845;53.698;10.078;2022-07-10T12:21:46;101672.72;;;20.02;82.50
15487;BME280;7845;53.698;10.078;2022-07-10T12:24:13;101674.44;;;20.31;85.49
15487;BME280;7845;53.698;10.078;2022-07-10T12:26:40;101674.34;;;20.34;80.29
15487;BME280;7845;53.698;10.078;2022-07-10T12:29:11;101670.25;;;20.24;81.58
15487;BME280;7845;53.698;10.078;2022-07-10T12:31:44;101675.88;;;20.41;83.16
15487;BME280;7845;53.698;10.078;2022-07-10T12:34:10;101692.78;;;19.83;83.23
15487;BME280;7845;53.698;10.078;2022-07-10T12:36:49;101688.88;;;19.67;84.48
15487;BME280;7845;53.698;10.078;2022-07-10T12:39:20;101684.25;;;19.73;84.58
15487;BME280;7845;53.698;10.078;2022-07-10T12:42:13;101694.28;;;19.62;82.90
15487;BME280;7845;53.698;10.078;2022-07-10T12:44:44;101707.88;;;19.52;88.94
15487;BME280;7845;53.698;10.078;2022-07-10T12:47:17;101710.78;;;19.43;90.15
15487;BME280;7845;53.698;10.078;2022-07-10T12:49:57;101695.72;;;19.74;89.93
15487;BME280;7845;53.698;10.078;2022-07-10T12:52:36;101701.97;;;19.99;90.84
15487;BME280;7845;53.698;10.078;2022-07-10T12:55:20;101706.19;;;19.49;91.86
15487;BME280;7845;53.698;10.078;2022-07-10T12:57:55;101706.72;;;19.60;94.13
15487;BME280;7845;53.698;10.078;2022-07-10T13:00:31;101713.78;;;19.60;92.05